sensor_id;sensor_type;location;lat;lon;timestamp;P1;durP1;ratioP1;P2;durP2;ratioP2
2474;SDS011;1248;48.694;10.160;2023-11-22T00:01:20;16.80;;;10.50;;
2474;SDS011;1248;48.694;10.160;2023-11-22T00:03:47;16.90;;;11.20;;
2474;SDS011;1248;48.694;10.160;2023-11-22T00:06:14;19.13;;;9.70;;
2474;SDS011;1248;48.694;10.160;2023-11-22T00:08:41;12.90;;;8.90;;
2474;SDS011;1248;48.694;10.160;2023-11-22T00:11:08;14.00;;;7.97;;
2474;SDS011;1248;48.694;10.160;2023-11-22T00:13:35;8.87;;;6.77;;
2474;SDS011;1248;48.694;10.160;2023-11-22T00:16:04;9.80;;;6.60;;
2474;SDS011;1248;48.694;10.160;2023-11-22T00:18:34;11.23;;;6.47;;
2474;SDS011;1248;48.694;10.160;2023-11-22T00:21:03;8.03;;;6.47;;
2474;SDS011;1248;48.694;10.160;2023-11-22T00:23:30;10.00;;;6.40;;
2474;SDS011;1248;48.694;10.160;2023-11-22T00:25:58;6.70;;;5.70;;
2474;SDS011;1248;48.694;10.160;2023-11-22T00:28:25;7.20;;;5.37;;
2474;SDS011;1248;48.694;10.160;2023-11-22T00:30:52;6.27;;;4.57;;
2474;SDS011;1248;48.694;10.160;2023-11-22T00:33:20;6.17;;;4.63;;
2474;SDS011;1248;48.694;10.160;2023-11-22T00:35:47;7.33;;;5.03;;
2474;SDS011;1248;48.694;10.160;2023-11-22T00:38:15;7.30;;;5.10;;
2474;SDS011;1248;48.694;10.160;2023-11-22T00:40:43;6.07;;;4.97;;
2474;SDS011;1248;48.694;10.160;2023-11-22T00:43:10;6.60;;;5.10;;
2474;SDS011;1248;48.694;10.160;2023-11-22T00:45:37;6.30;;;4.80;;
2474;SDS011;1248;48.694;10.160;2023-11-22T00:48:04;4.20;;;3.80;;
2474;SDS011;1248;48.694;10.160;2023-11-22T00:50:32;4.80;;;4.30;;
2474;SDS011;1248;48.694;10.160;2023-11-22T00:53:00;3.90;;;3.00;;
2474;SDS011;1248;48.694;10.160;2023-11-22T00:55:27;4.93;;;3.93;;
2474;SDS011;1248;48.694;10.160;2023-11-22T00:57:54;3.80;;;3.40;;
2474;SDS011;1248;48.694;10.160;2023-11-22T01:00:27;4.67;;;3.80;;
2474;SDS011;1248;48.694;10.160;2023-11-22T01:02:54;4.40;;;3.80;;
2474;SDS011;1248;48.694;10.160;2023-11-22T01:05:21;4.17;;;3.63;;
2474;SDS011;1248;48.694;10.160;2023-11-22T01:07:51;7.03;;;4.40;;
2474;SDS011;1248;48.694;10.160;2023-11-22T01:10:18;4.33;;;3.67;;
2474;SDS011;1248;48.694;10.160;2023-11-22T01:12:45;4.40;;;3.70;;
2474;SDS011;1248;48.694;10.160;2023-11-22T01:15:13;3.93;;;3.57;;
2474;SDS011;1248;48.694;10.160;2023-11-22T01:17:40;4.23;;;3.23;;
2474;SDS011;1248;48.694;10.160;2023-11-22T01:20:08;3.30;;;2.80;;
2474;SDS011;1248;48.694;10.160;2023-11-22T01:22:37;3.80;;;3.37;;
2474;SDS011;1248;48.694;10.160;2023-11-22T01:25:06;3.40;;;3.10;;
2474;SDS011;1248;48.694;10.160;2023-11-22T01:27:33;4.10;;;3.70;;
2474;SDS011;1248;48.694;10.160;2023-11-22T01:30:01;4.60;;;3.70;;
2474;SDS011;1248;48.694;10.160;2023-11-22T01:32:32;6.23;;;4.00;;
2474;SDS011;1248;48.694;10.160;2023-11-22T01:35:00;9.70;;;4.23;;
2474;SDS011;1248;48.694;10.160;2023-11-22T01:37:27;4.30;;;3.10;;
2474;SDS011;1248;48.694;10.160;2023-11-22T01:39:54;5.60;;;4.27;;
2474;SDS011;1248;48.694;10.160;2023-11-22T01:42:22;4.47;;;3.60;;
2474;SDS011;1248;48.694;10.160;2023-11-22T01:44:50;4.17;;;3.53;;
2474;SDS011;1248;48.694;10.160;2023-11-22T01:47:18;2.80;;;2.40;;
2474;SDS011;1248;48.694;10.160;2023-11-22T01:49:45;3.13;;;2.77;;
2474;SDS011;1248;48.694;10.160;2023-11-22T01:52:13;3.27;;;2.90;;
2474;SDS011;1248;48.694;10.160;2023-11-22T01:54:40;2.67;;;2.40;;
2474;SDS011;1248;48.694;10.160;2023-11-22T01:57:08;3.70;;;3.10;;
2474;SDS011;1248;48.694;10.160;2023-11-22T01:59:37;3.30;;;3.00;;
2474;SDS011;1248;48.694;10.160;2023-11-22T02:02:04;4.10;;;3.47;;
2474;SDS011;1248;48.694;10.160;2023-11-22T02:04:32;2.90;;;2.60;;
2474;SDS011;1248;48.694;10.160;2023-11-22T02:06:59;4.80;;;3.60;;
2474;SDS011;1248;48.694;10.160;2023-11-22T02:09:26;4.53;;;4.03;;
2474;SDS011;1248;48.694;10.160;2023-11-22T02:11:53;3.97;;;3.57;;
2474;SDS011;1248;48.694;10.160;2023-11-22T02:14:20;6.20;;;4.87;;
2474;SDS011;1248;48.694;10.160;2023-11-22T02:16:48;4.93;;;3.90;;
2474;SDS011;1248;48.694;10.160;2023-11-22T02:19:16;6.07;;;4.57;;
2474;SDS011;1248;48.694;10.160;2023-11-22T02:21:44;5.50;;;4.83;;
2474;SDS011;1248;48.694;10.160;2023-11-22T02:24:12;5.43;;;4.93;;
2474;SDS011;1248;48.694;10.160;2023-11-22T02:26:43;5.07;;;4.30;;
2474;SDS011;1248;48.694;10.160;2023-11-22T02:29:11;7.70;;;4.63;;
2474;SDS011;1248;48.694;10.160;2023-11-22T02:31:41;7.43;;;4.90;;
2474;SDS011;1248;48.694;10.160;2023-11-22T02:34:09;5.63;;;4.33;;
2474;SDS011;1248;48.694;10.160;2023-11-22T02:36:37;5.50;;;4.33;;
2474;SDS011;1248;48.694;10.160;2023-11-22T02:39:04;4.37;;;4.07;;
2474;SDS011;1248;48.694;10.160;2023-11-22T02:41:33;5.13;;;4.10;;
2474;SDS011;1248;48.694;10.160;2023-11-22T02:44:00;5.10;;;4.60;;
2474;SDS011;1248;48.694;10.160;2023-11-22T02:46:27;5.83;;;4.80;;
2474;SDS011;1248;48.694;10.160;2023-11-22T02:48:56;4.33;;;3.30;;
2474;SDS011;1248;48.694;10.160;2023-11-22T02:51:24;6.70;;;4.40;;
2474;SDS011;1248;48.694;10.160;2023-11-22T02:53:54;5.27;;;4.07;;
2474;SDS011;1248;48.694;10.160;2023-11-22T02:56:21;7.70;;;6.17;;
2474;SDS011;1248;48.694;10.160;2023-11-22T02:58:49;4.37;;;3.90;;
2474;SDS011;1248;48.694;10.160;2023-11-22T03:01:16;6.10;;;5.00;;
2474;SDS011;1248;48.694;10.160;2023-11-22T03:03:43;7.93;;;5.63;;
2474;SDS011;1248;48.694;10.160;2023-11-22T03:06:10;6.20;;;5.30;;
2474;SDS011;1248;48.694;10.160;2023-11-22T03:08:37;9.83;;;6.20;;
2474;SDS011;1248;48.694;10.160;2023-11-22T03:11:04;6.63;;;5.70;;
2474;SDS011;1248;48.694;10.160;2023-11-22T03:13:32;9.03;;;6.10;;
2474;SDS011;1248;48.694;10.160;2023-11-22T03:16:01;7.73;;;6.50;;
2474;SDS011;1248;48.694;10.160;2023-11-22T03:18:29;10.20;;;6.60;;
2474;SDS011;1248;48.694;10.160;2023-11-22T03:20:56;9.60;;;6.20;;
2474;SDS011;1248;48.694;10.160;2023-11-22T03:23:24;6.97;;;6.23;;
2474;SDS011;1248;48.694;10.160;2023-11-22T03:25:51;8.90;;;6.90;;
2474;SDS011;1248;48.694;10.160;2023-11-22T03:28:18;14.03;;;7.90;;
2474;SDS011;1248;48.694;10.160;2023-11-22T03:30:45;8.53;;;6.23;;
2474;SDS011;1248;48.694;10.160;2023-11-22T03:33:14;11.37;;;7.43;;
2474;SDS011;1248;48.694;10.160;2023-11-22T03:35:41;8.97;;;7.13;;
2474;SDS011;1248;48.694;10.160;2023-11-22T03:38:08;9.07;;;7.17;;
2474;SDS011;1248;48.694;10.160;2023-11-22T03:40:35;11.30;;;7.17;;
2474;SDS011;1248;48.694;10.160;2023-11-22T03:43:02;7.10;;;5.50;;
2474;SDS011;1248;48.694;10.160;2023-11-22T03:45:29;10.33;;;8.23;;
2474;SDS011;1248;48.694;10.160;2023-11-22T03:47:56;11.60;;;7.70;;
2474;SDS011;1248;48.694;10.160;2023-11-22T03:50:25;11.20;;;7.20;;
2474;SDS011;1248;48.694;10.160;2023-11-22T03:52:52;12.80;;;8.23;;
2474;SDS011;1248;48.694;10.160;2023-11-22T03:55:19;10.63;;;7.73;;
2474;SDS011;1248;48.694;10.160;2023-11-22T03:57:46;11.93;;;9.03;;
2474;SDS011;1248;48.694;10.160;2023-11-22T04:00:13;11.20;;;8.20;;
2474;SDS011;1248;48.694;10.160;2023-11-22T04:02:42;12.83;;;7.30;;
2474;SDS011;1248;48.694;10.160;2023-11-22T04:05:10;12.90;;;8.77;;
2474;SDS011;1248;48.694;10.160;2023-11-22T04:07:39;15.80;;;9.07;;
2474;SDS011;1248;48.694;10.160;2023-11-22T04:10:06;11.50;;;8.03;;
2474;SDS011;1248;48.694;10.160;2023-11-22T04:12:34;14.13;;;9.00;;
2474;SDS011;1248;48.694;10.160;2023-11-22T04:15:01;15.70;;;9.83;;
2474;SDS011;1248;48.694;10.160;2023-11-22T04:17:28;12.67;;;8.20;;
2474;SDS011;1248;48.694;10.160;2023-11-22T04:19:55;12.83;;;8.93;;
2474;SDS011;1248;48.694;10.160;2023-11-22T04:22:22;12.87;;;8.17;;
2474;SDS011;1248;48.694;10.160;2023-11-22T04:24:51;14.93;;;9.50;;
2474;SDS011;1248;48.694;10.160;2023-11-22T04:27:18;13.67;;;10.57;;
2474;SDS011;1248;48.694;10.160;2023-11-22T04:29:45;13.60;;;8.30;;
2474;SDS011;1248;48.694;10.160;2023-11-22T04:32:12;13.00;;;8.33;;
2474;SDS011;1248;48.694;10.160;2023-11-22T04:34:39;12.70;;;8.03;;
2474;SDS011;1248;48.694;10.160;2023-11-22T04:37:06;10.90;;;7.90;;
2474;SDS011;1248;48.694;10.160;2023-11-22T04:39:33;15.10;;;10.53;;
2474;SDS011;1248;48.694;10.160;2023-11-22T04:42:01;17.43;;;9.10;;
2474;SDS011;1248;48.694;10.160;2023-11-22T04:44:28;11.70;;;8.33;;
2474;SDS011;1248;48.694;10.160;2023-11-22T04:46:55;12.57;;;8.50;;
2474;SDS011;1248;48.694;10.160;2023-11-22T04:49:22;10.47;;;7.30;;
2474;SDS011;1248;48.694;10.160;2023-11-22T04:51:49;15.33;;;7.90;;
2474;SDS011;1248;48.694;10.160;2023-11-22T04:54:16;10.53;;;8.40;;
2474;SDS011;1248;48.694;10.160;2023-11-22T04:56:43;10.60;;;7.87;;
2474;SDS011;1248;48.694;10.160;2023-11-22T04:59:12;16.43;;;7.97;;
2474;SDS011;1248;48.694;10.160;2023-11-22T05:01:39;10.23;;;7.53;;
2474;SDS011;1248;48.694;10.160;2023-11-22T05:04:06;11.13;;;7.77;;
2474;SDS011;1248;48.694;10.160;2023-11-22T05:06:33;11.00;;;8.67;;
2474;SDS011;1248;48.694;10.160;2023-11-22T05:09:00;10.90;;;7.40;;
2474;SDS011;1248;48.694;10.160;2023-11-22T05:11:27;12.13;;;8.50;;
2474;SDS011;1248;48.694;10.160;2023-11-22T05:13:54;10.27;;;7.23;;
2474;SDS011;1248;48.694;10.160;2023-11-22T05:16:23;8.57;;;6.87;;
2474;SDS011;1248;48.694;10.160;2023-11-22T05:18:50;8.47;;;6.37;;
2474;SDS011;1248;48.694;10.160;2023-11-22T05:21:17;13.00;;;7.40;;
2474;SDS011;1248;48.694;10.160;2023-11-22T05:23:44;9.33;;;7.80;;
2474;SDS011;1248;48.694;10.160;2023-11-22T05:26:11;10.70;;;7.77;;
2474;SDS011;1248;48.694;10.160;2023-11-22T05:28:38;10.27;;;7.00;;
2474;SDS011;1248;48.694;10.160;2023-11-22T05:31:05;12.90;;;7.57;;
2474;SDS011;1248;48.694;10.160;2023-11-22T05:33:33;9.47;;;7.67;;
2474;SDS011;1248;48.694;10.160;2023-11-22T05:36:00;10.73;;;8.20;;
2474;SDS011;1248;48.694;10.160;2023-11-22T05:38:27;11.70;;;7.30;;
2474;SDS011;1248;48.694;10.160;2023-11-22T05:40:55;8.10;;;6.90;;
2474;SDS011;1248;48.694;10.160;2023-11-22T05:43:22;16.00;;;8.10;;
2474;SDS011;1248;48.694;10.160;2023-11-22T05:45:52;10.40;;;7.97;;
2474;SDS011;1248;48.694;10.160;2023-11-22T05:48:19;13.60;;;8.07;;
2474;SDS011;1248;48.694;10.160;2023-11-22T05:50:47;7.70;;;6.40;;
2474;SDS011;1248;48.694;10.160;2023-11-22T05:53:15;10.63;;;6.83;;
2474;SDS011;1248;48.694;10.160;2023-11-22T05:55:45;11.57;;;6.97;;
2474;SDS011;1248;48.694;10.160;2023-11-22T05:58:13;12.50;;;7.20;;
2474;SDS011;1248;48.694;10.160;2023-11-22T06:00:42;8.13;;;6.33;;
2474;SDS011;1248;48.694;10.160;2023-11-22T06:03:09;8.63;;;6.17;;
2474;SDS011;1248;48.694;10.160;2023-11-22T06:05:36;7.50;;;6.00;;
2474;SDS011;1248;48.694;10.160;2023-11-22T06:08:05;8.30;;;6.37;;
2474;SDS011;1248;48.694;10.160;2023-11-22T06:10:32;7.40;;;5.90;;
2474;SDS011;1248;48.694;10.160;2023-11-22T06:13:00;12.23;;;6.00;;
2474;SDS011;1248;48.694;10.160;2023-11-22T06:15:27;7.73;;;6.00;;
2474;SDS011;1248;48.694;10.160;2023-11-22T06:17:54;7.40;;;5.20;;
2474;SDS011;1248;48.694;10.160;2023-11-22T06:20:21;7.10;;;5.90;;
2474;SDS011;1248;48.694;10.160;2023-11-22T06:22:49;8.00;;;4.90;;
2474;SDS011;1248;48.694;10.160;2023-11-22T06:25:18;7.13;;;5.23;;
2474;SDS011;1248;48.694;10.160;2023-11-22T06:27:45;5.37;;;4.97;;
2474;SDS011;1248;48.694;10.160;2023-11-22T06:30:12;5.67;;;5.13;;
2474;SDS011;1248;48.694;10.160;2023-11-22T06:32:40;6.20;;;5.30;;
2474;SDS011;1248;48.694;10.160;2023-11-22T06:35:08;6.77;;;4.20;;
2474;SDS011;1248;48.694;10.160;2023-11-22T06:37:37;6.37;;;5.77;;
2474;SDS011;1248;48.694;10.160;2023-11-22T06:40:04;6.53;;;5.00;;
2474;SDS011;1248;48.694;10.160;2023-11-22T06:42:33;11.30;;;7.03;;
2474;SDS011;1248;48.694;10.160;2023-11-22T06:45:00;7.17;;;5.20;;
2474;SDS011;1248;48.694;10.160;2023-11-22T06:47:27;7.60;;;6.00;;
2474;SDS011;1248;48.694;10.160;2023-11-22T06:49:54;8.47;;;5.60;;
2474;SDS011;1248;48.694;10.160;2023-11-22T06:52:21;6.03;;;5.23;;
2474;SDS011;1248;48.694;10.160;2023-11-22T06:54:48;8.63;;;5.83;;
2474;SDS011;1248;48.694;10.160;2023-11-22T06:57:16;6.00;;;5.20;;
2474;SDS011;1248;48.694;10.160;2023-11-22T06:59:44;8.57;;;5.60;;
2474;SDS011;1248;48.694;10.160;2023-11-22T07:02:11;9.37;;;6.30;;
2474;SDS011;1248;48.694;10.160;2023-11-22T07:04:39;5.70;;;5.20;;
2474;SDS011;1248;48.694;10.160;2023-11-22T07:07:06;7.40;;;5.50;;
2474;SDS011;1248;48.694;10.160;2023-11-22T07:09:36;6.43;;;5.67;;
2474;SDS011;1248;48.694;10.160;2023-11-22T07:12:04;7.37;;;5.77;;
2474;SDS011;1248;48.694;10.160;2023-11-22T07:14:33;8.43;;;7.17;;
2474;SDS011;1248;48.694;10.160;2023-11-22T07:17:01;11.80;;;7.60;;
2474;SDS011;1248;48.694;10.160;2023-11-22T07:19:32;10.13;;;7.23;;
2474;SDS011;1248;48.694;10.160;2023-11-22T07:22:00;8.07;;;7.27;;
2474;SDS011;1248;48.694;10.160;2023-11-22T07:24:30;9.60;;;7.57;;
2474;SDS011;1248;48.694;10.160;2023-11-22T07:26:59;7.03;;;6.17;;
2474;SDS011;1248;48.694;10.160;2023-11-22T07:29:27;10.95;;;6.38;;
2474;SDS011;1248;48.694;10.160;2023-11-22T07:31:54;9.70;;;7.30;;
2474;SDS011;1248;48.694;10.160;2023-11-22T07:34:24;15.23;;;8.50;;
2474;SDS011;1248;48.694;10.160;2023-11-22T07:36:51;14.30;;;9.47;;
2474;SDS011;1248;48.694;10.160;2023-11-22T07:39:18;10.50;;;8.63;;
2474;SDS011;1248;48.694;10.160;2023-11-22T07:41:50;13.03;;;8.87;;
2474;SDS011;1248;48.694;10.160;2023-11-22T07:44:18;21.60;;;12.30;;
2474;SDS011;1248;48.694;10.160;2023-11-22T07:46:45;14.20;;;10.27;;
2474;SDS011;1248;48.694;10.160;2023-11-22T07:49:12;11.53;;;8.00;;
2474;SDS011;1248;48.694;10.160;2023-11-22T07:51:41;7.60;;;6.23;;
2474;SDS011;1248;48.694;10.160;2023-11-22T07:54:08;11.67;;;7.60;;
2474;SDS011;1248;48.694;10.160;2023-11-22T07:56:35;12.20;;;8.17;;
2474;SDS011;1248;48.694;10.160;2023-11-22T07:59:02;10.73;;;7.00;;
2474;SDS011;1248;48.694;10.160;2023-11-22T08:01:30;8.10;;;6.47;;
2474;SDS011;1248;48.694;10.160;2023-11-22T08:03:57;6.77;;;6.00;;
2474;SDS011;1248;48.694;10.160;2023-11-22T08:06:24;6.00;;;4.80;;
2474;SDS011;1248;48.694;10.160;2023-11-22T08:08:53;6.17;;;5.57;;
2474;SDS011;1248;48.694;10.160;2023-11-22T08:11:22;7.07;;;4.80;;
2474;SDS011;1248;48.694;10.160;2023-11-22T08:13:49;5.03;;;4.57;;
2474;SDS011;1248;48.694;10.160;2023-11-22T08:16:16;7.47;;;5.07;;
2474;SDS011;1248;48.694;10.160;2023-11-22T08:18:45;5.10;;;4.60;;
2474;SDS011;1248;48.694;10.160;2023-11-22T08:21:13;6.17;;;5.57;;
2474;SDS011;1248;48.694;10.160;2023-11-22T08:23:40;5.33;;;4.90;;
2474;SDS011;1248;48.694;10.160;2023-11-22T08:26:09;5.60;;;5.10;;
2474;SDS011;1248;48.694;10.160;2023-11-22T08:28:37;5.70;;;5.20;;
2474;SDS011;1248;48.694;10.160;2023-11-22T08:31:04;5.70;;;5.10;;
2474;SDS011;1248;48.694;10.160;2023-11-22T08:33:34;8.60;;;6.43;;
2474;SDS011;1248;48.694;10.160;2023-11-22T08:36:02;6.93;;;6.20;;
2474;SDS011;1248;48.694;10.160;2023-11-22T08:38:30;7.20;;;5.47;;
2474;SDS011;1248;48.694;10.160;2023-11-22T08:41:00;4.97;;;4.57;;
2474;SDS011;1248;48.694;10.160;2023-11-22T08:43:29;7.20;;;5.50;;
2474;SDS011;1248;48.694;10.160;2023-11-22T08:45:57;7.97;;;6.13;;
2474;SDS011;1248;48.694;10.160;2023-11-22T08:48:25;7.57;;;5.60;;
2474;SDS011;1248;48.694;10.160;2023-11-22T08:50:53;6.30;;;5.50;;
2474;SDS011;1248;48.694;10.160;2023-11-22T08:53:21;8.47;;;6.40;;
2474;SDS011;1248;48.694;10.160;2023-11-22T08:55:48;5.67;;;5.10;;
2474;SDS011;1248;48.694;10.160;2023-11-22T08:58:15;7.03;;;5.23;;
2474;SDS011;1248;48.694;10.160;2023-11-22T09:00:44;5.73;;;5.27;;
2474;SDS011;1248;48.694;10.160;2023-11-22T09:03:11;5.23;;;4.73;;
2474;SDS011;1248;48.694;10.160;2023-11-22T09:05:38;5.87;;;5.00;;
2474;SDS011;1248;48.694;10.160;2023-11-22T09:08:05;7.77;;;5.27;;
2474;SDS011;1248;48.694;10.160;2023-11-22T09:10:38;8.07;;;7.27;;
2474;SDS011;1248;48.694;10.160;2023-11-22T09:13:07;7.17;;;5.90;;
2474;SDS011;1248;48.694;10.160;2023-11-22T09:15:34;9.60;;;5.47;;
2474;SDS011;1248;48.694;10.160;2023-11-22T09:18:03;7.07;;;5.50;;
2474;SDS011;1248;48.694;10.160;2023-11-22T09:20:31;6.63;;;6.03;;
2474;SDS011;1248;48.694;10.160;2023-11-22T09:22:58;9.20;;;7.30;;
2474;SDS011;1248;48.694;10.160;2023-11-22T09:25:25;8.53;;;6.33;;
2474;SDS011;1248;48.694;10.160;2023-11-22T09:27:55;9.60;;;7.20;;
2474;SDS011;1248;48.694;10.160;2023-11-22T09:30:25;7.27;;;6.57;;
2474;SDS011;1248;48.694;10.160;2023-11-22T09:33:01;8.03;;;7.03;;
2474;SDS011;1248;48.694;10.160;2023-11-22T09:35:30;8.03;;;7.23;;
2474;SDS011;1248;48.694;10.160;2023-11-22T09:37:58;6.03;;;5.30;;
2474;SDS011;1248;48.694;10.160;2023-11-22T09:40:26;9.33;;;7.07;;
2474;SDS011;1248;48.694;10.160;2023-11-22T09:42:54;6.17;;;5.40;;
2474;SDS011;1248;48.694;10.160;2023-11-22T09:45:23;5.80;;;5.17;;
2474;SDS011;1248;48.694;10.160;2023-11-22T09:47:51;11.43;;;9.03;;
2474;SDS011;1248;48.694;10.160;2023-11-22T09:50:21;8.27;;;7.03;;
2474;SDS011;1248;48.694;10.160;2023-11-22T09:52:52;13.50;;;10.00;;
2474;SDS011;1248;48.694;10.160;2023-11-22T09:55:20;7.00;;;6.00;;
2474;SDS011;1248;48.694;10.160;2023-11-22T09:57:48;6.90;;;6.07;;
2474;SDS011;1248;48.694;10.160;2023-11-22T10:00:16;13.27;;;9.40;;
2474;SDS011;1248;48.694;10.160;2023-11-22T10:02:47;9.33;;;6.50;;
2474;SDS011;1248;48.694;10.160;2023-11-22T10:05:14;9.20;;;7.30;;
2474;SDS011;1248;48.694;10.160;2023-11-22T10:07:43;9.70;;;7.63;;
2474;SDS011;1248;48.694;10.160;2023-11-22T10:10:13;9.03;;;7.03;;
2474;SDS011;1248;48.694;10.160;2023-11-22T10:12:42;5.70;;;5.10;;
2474;SDS011;1248;48.694;10.160;2023-11-22T10:15:12;23.53;;;12.40;;
2474;SDS011;1248;48.694;10.160;2023-11-22T10:17:41;25.83;;;15.67;;
2474;SDS011;1248;48.694;10.160;2023-11-22T10:20:14;9.90;;;8.23;;
2474;SDS011;1248;48.694;10.160;2023-11-22T10:22:46;7.43;;;6.30;;
2474;SDS011;1248;48.694;10.160;2023-11-22T10:25:14;8.87;;;8.07;;
2474;SDS011;1248;48.694;10.160;2023-11-22T10:27:44;8.23;;;7.43;;
2474;SDS011;1248;48.694;10.160;2023-11-22T10:30:13;8.20;;;6.67;;
2474;SDS011;1248;48.694;10.160;2023-11-22T10:32:41;6.23;;;5.50;;
2474;SDS011;1248;48.694;10.160;2023-11-22T10:35:08;6.27;;;5.33;;
2474;SDS011;1248;48.694;10.160;2023-11-22T10:37:35;8.00;;;6.70;;
2474;SDS011;1248;48.694;10.160;2023-11-22T10:40:04;8.83;;;5.87;;
2474;SDS011;1248;48.694;10.160;2023-11-22T10:42:36;7.13;;;6.43;;
2474;SDS011;1248;48.694;10.160;2023-11-22T10:45:04;7.63;;;6.40;;
2474;SDS011;1248;48.694;10.160;2023-11-22T10:47:34;9.50;;;6.30;;
2474;SDS011;1248;48.694;10.160;2023-11-22T10:50:05;9.03;;;6.90;;
2474;SDS011;1248;48.694;10.160;2023-11-22T10:52:35;8.33;;;6.63;;
2474;SDS011;1248;48.694;10.160;2023-11-22T10:55:04;7.53;;;6.60;;
2474;SDS011;1248;48.694;10.160;2023-11-22T10:57:33;8.90;;;7.10;;
2474;SDS011;1248;48.694;10.160;2023-11-22T11:00:04;12.97;;;8.33;;
2474;SDS011;1248;48.694;10.160;2023-11-22T11:02:35;9.53;;;6.90;;
2474;SDS011;1248;48.694;10.160;2023-11-22T11:05:06;10.00;;;7.70;;
2474;SDS011;1248;48.694;10.160;2023-11-22T11:07:41;8.10;;;6.83;;
2474;SDS011;1248;48.694;10.160;2023-11-22T11:10:15;9.70;;;7.10;;
2474;SDS011;1248;48.694;10.160;2023-11-22T11:12:42;9.87;;;7.97;;
2474;SDS011;1248;48.694;10.160;2023-11-22T11:15:11;10.93;;;7.80;;
2474;SDS011;1248;48.694;10.160;2023-11-22T11:17:38;11.67;;;8.67;;
2474;SDS011;1248;48.694;10.160;2023-11-22T11:20:06;12.47;;;8.23;;
2474;SDS011;1248;48.694;10.160;2023-11-22T11:22:37;11.07;;;8.73;;
2474;SDS011;1248;48.694;10.160;2023-11-22T11:25:04;13.57;;;7.83;;
2474;SDS011;1248;48.694;10.160;2023-11-22T11:27:35;10.37;;;7.67;;
2474;SDS011;1248;48.694;10.160;2023-11-22T11:30:06;9.20;;;7.90;;
2474;SDS011;1248;48.694;10.160;2023-11-22T11:33:07;9.27;;;8.00;;
2474;SDS011;1248;48.694;10.160;2023-11-22T11:35:41;10.47;;;7.97;;
2474;SDS011;1248;48.694;10.160;2023-11-22T11:38:11;9.20;;;7.70;;
2474;SDS011;1248;48.694;10.160;2023-11-22T11:40:40;12.20;;;8.43;;
2474;SDS011;1248;48.694;10.160;2023-11-22T11:43:08;14.47;;;9.60;;
2474;SDS011;1248;48.694;10.160;2023-11-22T11:45:37;10.70;;;8.00;;
2474;SDS011;1248;48.694;10.160;2023-11-22T11:48:05;9.73;;;7.67;;
2474;SDS011;1248;48.694;10.160;2023-11-22T11:50:33;11.40;;;8.77;;
2474;SDS011;1248;48.694;10.160;2023-11-22T11:53:00;12.77;;;9.17;;
2474;SDS011;1248;48.694;10.160;2023-11-22T11:55:28;9.43;;;7.57;;
2474;SDS011;1248;48.694;10.160;2023-11-22T11:57:55;11.37;;;8.27;;
2474;SDS011;1248;48.694;10.160;2023-11-22T12:00:23;12.30;;;8.90;;
2474;SDS011;1248;48.694;10.160;2023-11-22T12:02:54;9.20;;;7.03;;
2474;SDS011;1248;48.694;10.160;2023-11-22T12:05:21;10.23;;;8.13;;
2474;SDS011;1248;48.694;10.160;2023-11-22T12:07:48;11.93;;;8.97;;
2474;SDS011;1248;48.694;10.160;2023-11-22T12:10:15;8.30;;;7.10;;
2474;SDS011;1248;48.694;10.160;2023-11-22T12:12:44;10.23;;;8.23;;
2474;SDS011;1248;48.694;10.160;2023-11-22T12:15:12;13.47;;;9.30;;
2474;SDS011;1248;48.694;10.160;2023-11-22T12:17:42;9.80;;;7.93;;
2474;SDS011;1248;48.694;10.160;2023-11-22T12:20:12;13.67;;;7.73;;
2474;SDS011;1248;48.694;10.160;2023-11-22T12:22:41;12.20;;;8.30;;
2474;SDS011;1248;48.694;10.160;2023-11-22T12:25:09;10.50;;;9.00;;
2474;SDS011;1248;48.694;10.160;2023-11-22T12:27:40;12.63;;;7.63;;
2474;SDS011;1248;48.694;10.160;2023-11-22T12:30:08;11.67;;;8.43;;
2474;SDS011;1248;48.694;10.160;2023-11-22T12:32:39;10.80;;;8.03;;
2474;SDS011;1248;48.694;10.160;2023-11-22T12:35:09;14.33;;;9.00;;
2474;SDS011;1248;48.694;10.160;2023-11-22T12:37:37;9.03;;;8.10;;
2474;SDS011;1248;48.694;10.160;2023-11-22T12:40:09;10.63;;;7.57;;
2474;SDS011;1248;48.694;10.160;2023-11-22T12:42:49;12.57;;;8.70;;
2474;SDS011;1248;48.694;10.160;2023-11-22T12:45:21;11.00;;;8.30;;
2474;SDS011;1248;48.694;10.160;2023-11-22T12:47:49;10.70;;;8.90;;
2474;SDS011;1248;48.694;10.160;2023-11-22T12:50:30;10.13;;;8.17;;
2474;SDS011;1248;48.694;10.160;2023-11-22T12:52:58;10.53;;;7.60;;
2474;SDS011;1248;48.694;10.160;2023-11-22T12:55:25;14.13;;;9.27;;
2474;SDS011;1248;48.694;10.160;2023-11-22T12:57:56;12.13;;;8.50;;
2474;SDS011;1248;48.694;10.160;2023-11-22T13:00:25;12.97;;;8.73;;
2474;SDS011;1248;48.694;10.160;2023-11-22T13:02:54;11.03;;;8.83;;
2474;SDS011;1248;48.694;10.160;2023-11-22T13:05:21;12.87;;;9.10;;
2474;SDS011;1248;48.694;10.160;2023-11-22T13:07:50;14.70;;;9.50;;
2474;SDS011;1248;48.694;10.160;2023-11-22T13:10:18;12.60;;;8.13;;
2474;SDS011;1248;48.694;10.160;2023-11-22T13:12:51;12.50;;;7.77;;
2474;SDS011;1248;48.694;10.160;2023-11-22T13:15:19;12.47;;;8.20;;
2474;SDS011;1248;48.694;10.160;2023-11-22T13:17:49;11.83;;;7.67;;
2474;SDS011;1248;48.694;10.160;2023-11-22T13:20:23;16.43;;;10.37;;
2474;SDS011;1248;48.694;10.160;2023-11-22T13:22:52;16.10;;;8.87;;
2474;SDS011;1248;48.694;10.160;2023-11-22T13:25:20;14.07;;;9.17;;
2474;SDS011;1248;48.694;10.160;2023-11-22T13:27:49;13.07;;;8.70;;
2474;SDS011;1248;48.694;10.160;2023-11-22T13:30:17;13.97;;;9.77;;
2474;SDS011;1248;48.694;10.160;2023-11-22T13:32:48;12.63;;;9.70;;
2474;SDS011;1248;48.694;10.160;2023-11-22T13:35:15;10.10;;;8.60;;
2474;SDS011;1248;48.694;10.160;2023-11-22T13:37:43;13.20;;;9.43;;
2474;SDS011;1248;48.694;10.160;2023-11-22T13:40:12;11.83;;;9.90;;
2474;SDS011;1248;48.694;10.160;2023-11-22T13:42:44;14.67;;;9.50;;
2474;SDS011;1248;48.694;10.160;2023-11-22T13:45:12;15.27;;;9.93;;
2474;SDS011;1248;48.694;10.160;2023-11-22T13:47:42;14.67;;;9.97;;
2474;SDS011;1248;48.694;10.160;2023-11-22T13:50:10;15.57;;;9.60;;
2474;SDS011;1248;48.694;10.160;2023-11-22T13:52:38;16.97;;;11.17;;
2474;SDS011;1248;48.694;10.160;2023-11-22T13:55:06;14.30;;;10.83;;
2474;SDS011;1248;48.694;10.160;2023-11-22T13:57:38;18.57;;;10.87;;
2474;SDS011;1248;48.694;10.160;2023-11-22T14:00:06;17.40;;;9.23;;
2474;SDS011;1248;48.694;10.160;2023-11-22T14:02:38;16.03;;;9.60;;
2474;SDS011;1248;48.694;10.160;2023-11-22T14:05:06;11.33;;;8.70;;
2474;SDS011;1248;48.694;10.160;2023-11-22T14:07:34;15.77;;;10.93;;
2474;SDS011;1248;48.694;10.160;2023-11-22T14:10:02;17.67;;;11.23;;
2474;SDS011;1248;48.694;10.160;2023-11-22T14:12:29;17.27;;;11.80;;
2474;SDS011;1248;48.694;10.160;2023-11-22T14:14:58;25.67;;;12.67;;
2474;SDS011;1248;48.694;10.160;2023-11-22T14:17:26;21.50;;;11.63;;
2474;SDS011;1248;48.694;10.160;2023-11-22T14:19:53;13.70;;;8.73;;
2474;SDS011;1248;48.694;10.160;2023-11-22T14:22:21;12.53;;;9.13;;
2474;SDS011;1248;48.694;10.160;2023-11-22T14:24:48;12.40;;;9.10;;
2474;SDS011;1248;48.694;10.160;2023-11-22T14:27:15;14.23;;;9.13;;
2474;SDS011;1248;48.694;10.160;2023-11-22T14:29:43;12.27;;;9.90;;
2474;SDS011;1248;48.694;10.160;2023-11-22T14:32:15;14.10;;;9.40;;
2474;SDS011;1248;48.694;10.160;2023-11-22T14:34:42;14.07;;;10.67;;
2474;SDS011;1248;48.694;10.160;2023-11-22T14:37:10;17.27;;;12.20;;
2474;SDS011;1248;48.694;10.160;2023-11-22T14:39:37;12.87;;;10.63;;
2474;SDS011;1248;48.694;10.160;2023-11-22T14:42:04;14.63;;;10.47;;
2474;SDS011;1248;48.694;10.160;2023-11-22T14:44:33;15.13;;;10.50;;
2474;SDS011;1248;48.694;10.160;2023-11-22T14:47:00;16.37;;;10.80;;
2474;SDS011;1248;48.694;10.160;2023-11-22T14:49:33;14.93;;;10.83;;
2474;SDS011;1248;48.694;10.160;2023-11-22T14:52:00;16.00;;;10.30;;
2474;SDS011;1248;48.694;10.160;2023-11-22T14:54:29;11.57;;;9.23;;
2474;SDS011;1248;48.694;10.160;2023-11-22T14:56:56;16.30;;;11.60;;
2474;SDS011;1248;48.694;10.160;2023-11-22T14:59:27;15.40;;;10.57;;